sensor_id;sensor_type;location;lat;lon;timestamp;temperature;humidity
52555;DHT22;38455;52.710;6.502;2024-02-23T00:02:05;5.80;99.90
52555;DHT22;38455;52.710;6.502;2024-02-23T00:04:31;5.80;99.90
52555;DHT22;38455;52.710;6.502;2024-02-23T00:06:56;5.80;99.90
52555;DHT22;38455;52.710;6.502;2024-02-23T00:09:22;5.80;99.90
52555;DHT22;38455;52.710;6.502;2024-02-23T00:11:48;5.70;99.90
52555;DHT22;38455;52.710;6.502;2024-02-23T00:14:15;5.70;99.90
52555;DHT22;38455;52.710;6.502;2024-02-23T00:16:44;5.70;99.90
52555;DHT22;38455;52.710;6.502;2024-02-23T00:19:10;5.60;99.90
52555;DHT22;38455;52.710;6.502;2024-02-23T00:21:36;5.60;99.90
52555;DHT22;38455;52.710;6.502;2024-02-23T00:24:02;5.60;99.90
52555;DHT22;38455;52.710;6.502;2024-02-23T00:26:28;5.60;99.90
52555;DHT22;38455;52.710;6.502;2024-02-23T00:28:55;5.60;99.90
52555;DHT22;38455;52.710;6.502;2024-02-23T00:31:20;5.50;99.90
52555;DHT22;38455;52.710;6.502;2024-02-23T00:33:46;5.40;99.90
52555;DHT22;38455;52.710;6.502;2024-02-23T00:36:12;5.40;99.90
52555;DHT22;38455;52.710;6.502;2024-02-23T00:38:38;5.30;99.90
52555;DHT22;38455;52.710;6.502;2024-02-23T00:41:03;5.20;99.90
52555;DHT22;38455;52.710;6.502;2024-02-23T00:43:29;5.10;99.90
52555;DHT22;38455;52.710;6.502;2024-02-23T00:45:55;5.10;99.90
52555;DHT22;38455;52.710;6.502;2024-02-23T00:48:21;5.00;99.90
52555;DHT22;38455;52.710;6.502;2024-02-23T00:50:46;4.90;99.90
52555;DHT22;38455;52.710;6.502;2024-02-23T00:53:12;4.90;99.90
52555;DHT22;38455;52.710;6.502;2024-02-23T00:55:38;4.90;99.90
52555;DHT22;38455;52.710;6.502;2024-02-23T00:58:03;4.90;99.90
52555;DHT22;38455;52.710;6.502;2024-02-23T01:00:29;4.90;99.90
52555;DHT22;38455;52.710;6.502;2024-02-23T01:02:55;4.80;99.90
52555;DHT22;38455;52.710;6.502;2024-02-23T01:05:20;4.90;99.90
52555;DHT22;38455;52.710;6.502;2024-02-23T01:07:46;4.90;99.90
52555;DHT22;38455;52.710;6.502;2024-02-23T01:10:12;4.90;99.90
52555;DHT22;38455;52.710;6.502;2024-02-23T01:12:37;4.90;99.90
52555;DHT22;38455;52.710;6.502;2024-02-23T01:15:03;4.80;99.90
52555;DHT22;38455;52.710;6.502;2024-02-23T01:17:29;4.80;99.90
52555;DHT22;38455;52.710;6.502;2024-02-23T01:19:55;4.90;99.90
52555;DHT22;38455;52.710;6.502;2024-02-23T01:22:20;4.90;99.90
52555;DHT22;38455;52.710;6.502;2024-02-23T01:24:46;4.90;99.90
52555;DHT22;38455;52.710;6.502;2024-02-23T01:27:12;4.90;99.90
52555;DHT22;38455;52.710;6.502;2024-02-23T01:29:37;4.90;99.90
52555;DHT22;38455;52.710;6.502;2024-02-23T01:32:03;4.90;99.90
52555;DHT22;38455;52.710;6.502;2024-02-23T01:34:29;4.90;99.90
52555;DHT22;38455;52.710;6.502;2024-02-23T01:36:54;4.90;99.90
52555;DHT22;38455;52.710;6.502;2024-02-23T01:39:20;4.90;99.90
52555;DHT22;38455;52.710;6.502;2024-02-23T01:41:46;4.90;99.90
52555;DHT22;38455;52.710;6.502;2024-02-23T01:44:11;5.00;99.90
52555;DHT22;38455;52.710;6.502;2024-02-23T01:46:37;5.10;99.90
52555;DHT22;38455;52.710;6.502;2024-02-23T01:49:03;5.10;99.90
52555;DHT22;38455;52.710;6.502;2024-02-23T01:51:30;5.10;99.90
52555;DHT22;38455;52.710;6.502;2024-02-23T01:53:57;5.20;99.90
52555;DHT22;38455;52.710;6.502;2024-02-23T01:56:22;5.20;99.90
52555;DHT22;38455;52.710;6.502;2024-02-23T01:58:48;5.20;99.90
52555;DHT22;38455;52.710;6.502;2024-02-23T02:01:14;5.30;99.90
52555;DHT22;38455;52.710;6.502;2024-02-23T02:03:41;5.30;99.90
52555;DHT22;38455;52.710;6.502;2024-02-23T02:06:06;5.30;99.90
52555;DHT22;38455;52.710;6.502;2024-02-23T02:08:37;5.40;99.90
52555;DHT22;38455;52.710;6.502;2024-02-23T02:11:03;5.40;99.90
52555;DHT22;38455;52.710;6.502;2024-02-23T02:13:29;5.40;99.90
52555;DHT22;38455;52.710;6.502;2024-02-23T02:15:56;5.30;99.90
52555;DHT22;38455;52.710;6.502;2024-02-23T02:18:22;5.30;99.90
52555;DHT22;38455;52.710;6.502;2024-02-23T02:20:51;5.30;99.90
52555;DHT22;38455;52.710;6.502;2024-02-23T02:23:19;5.30;99.90
52555;DHT22;38455;52.710;6.502;2024-02-23T02:25:44;5.30;99.90
52555;DHT22;38455;52.710;6.502;2024-02-23T02:28:10;5.30;99.90
52555;DHT22;38455;52.710;6.502;2024-02-23T02:30:36;5.30;99.90
52555;DHT22;38455;52.710;6.502;2024-02-23T02:33:02;5.30;99.90
52555;DHT22;38455;52.710;6.502;2024-02-23T02:35:27;5.30;99.90
52555;DHT22;38455;52.710;6.502;2024-02-23T02:37:53;5.40;99.90
52555;DHT22;38455;52.710;6.502;2024-02-23T02:40:19;5.40;99.90
52555;DHT22;38455;52.710;6.502;2024-02-23T02:42:44;5.40;99.90
52555;DHT22;38455;52.710;6.502;2024-02-23T02:45:10;5.40;99.90
52555;DHT22;38455;52.710;6.502;2024-02-23T02:47:36;5.50;99.90
52555;DHT22;38455;52.710;6.502;2024-02-23T02:50:02;5.50;99.90
52555;DHT22;38455;52.710;6.502;2024-02-23T02:52:27;5.50;99.90
52555;DHT22;38455;52.710;6.502;2024-02-23T02:54:54;5.50;99.90
52555;DHT22;38455;52.710;6.502;2024-02-23T02:57:20;5.50;99.90
52555;DHT22;38455;52.710;6.502;2024-02-23T02:59:45;5.50;99.90
52555;DHT22;38455;52.710;6.502;2024-02-23T03:02:12;5.50;99.90
52555;DHT22;38455;52.710;6.502;2024-02-23T03:04:37;5.50;99.90
52555;DHT22;38455;52.710;6.502;2024-02-23T03:07:03;5.40;99.90
52555;DHT22;38455;52.710;6.502;2024-02-23T03:09:29;5.40;99.90
52555;DHT22;38455;52.710;6.502;2024-02-23T03:11:54;5.40;99.90
52555;DHT22;38455;52.710;6.502;2024-02-23T03:14:21;5.40;99.90
52555;DHT22;38455;52.710;6.502;2024-02-23T03:16:48;5.30;99.90
52555;DHT22;38455;52.710;6.502;2024-02-23T03:19:14;5.30;99.90
52555;DHT22;38455;52.710;6.502;2024-02-23T03:21:40;5.30;99.90
52555;DHT22;38455;52.710;6.502;2024-02-23T03:24:06;5.20;99.90
52555;DHT22;38455;52.710;6.502;2024-02-23T03:26:32;5.20;99.90
52555;DHT22;38455;52.710;6.502;2024-02-23T03:28:57;5.20;99.90
52555;DHT22;38455;52.710;6.502;2024-02-23T03:31:23;5.20;99.90
52555;DHT22;38455;52.710;6.502;2024-02-23T03:33:49;5.10;99.90
52555;DHT22;38455;52.710;6.502;2024-02-23T03:36:14;5.10;99.90
52555;DHT22;38455;52.710;6.502;2024-02-23T03:38:40;5.10;99.90
52555;DHT22;38455;52.710;6.502;2024-02-23T03:41:05;5.10;99.90
52555;DHT22;38455;52.710;6.502;2024-02-23T03:43:32;5.10;99.90
52555;DHT22;38455;52.710;6.502;2024-02-23T03:45:57;5.10;99.90
52555;DHT22;38455;52.710;6.502;2024-02-23T03:48:23;5.10;99.90
52555;DHT22;38455;52.710;6.502;2024-02-23T03:50:48;5.10;99.90
52555;DHT22;38455;52.710;6.502;2024-02-23T03:53:14;5.10;99.90
52555;DHT22;38455;52.710;6.502;2024-02-23T03:55:40;5.10;99.90
52555;DHT22;38455;52.710;6.502;2024-02-23T03:58:05;5.00;99.90
52555;DHT22;38455;52.710;6.502;2024-02-23T04:00:31;5.00;99.90
52555;DHT22;38455;52.710;6.502;2024-02-23T04:02:57;5.00;99.90
52555;DHT22;38455;52.710;6.502;2024-02-23T04:05:22;5.00;99.90
52555;DHT22;38455;52.710;6.502;2024-02-23T04:07:48;5.00;99.90
52555;DHT22;38455;52.710;6.502;2024-02-23T04:10:14;5.00;99.90
52555;DHT22;38455;52.710;6.502;2024-02-23T04:12:42;5.10;99.90
52555;DHT22;38455;52.710;6.502;2024-02-23T04:15:09;5.00;99.90
52555;DHT22;38455;52.710;6.502;2024-02-23T04:17:35;5.00;99.90
52555;DHT22;38455;52.710;6.502;2024-02-23T04:20:06;5.00;99.90
52555;DHT22;38455;52.710;6.502;2024-02-23T04:22:32;5.00;99.90
52555;DHT22;38455;52.710;6.502;2024-02-23T04:24:57;4.90;99.90
52555;DHT22;38455;52.710;6.502;2024-02-23T04:27:23;4.90;99.90
52555;DHT22;38455;52.710;6.502;2024-02-23T04:29:49;5.00;99.90
52555;DHT22;38455;52.710;6.502;2024-02-23T04:32:14;4.90;99.90
52555;DHT22;38455;52.710;6.502;2024-02-23T04:34:40;4.90;99.90
52555;DHT22;38455;52.710;6.502;2024-02-23T04:37:07;4.90;99.90
52555;DHT22;38455;52.710;6.502;2024-02-23T04:39:32;5.00;99.90
52555;DHT22;38455;52.710;6.502;2024-02-23T04:41:58;5.00;99.90
52555;DHT22;38455;52.710;6.502;2024-02-23T04:44:24;5.00;99.90
52555;DHT22;38455;52.710;6.502;2024-02-23T04:46:49;5.10;99.90
52555;DHT22;38455;52.710;6.502;2024-02-23T04:49:15;5.20;99.90
52555;DHT22;38455;52.710;6.502;2024-02-23T04:51:41;5.20;99.90
52555;DHT22;38455;52.710;6.502;2024-02-23T04:54:06;5.20;99.90
52555;DHT22;38455;52.710;6.502;2024-02-23T04:56:33;5.20;99.90
52555;DHT22;38455;52.710;6.502;2024-02-23T04:58:59;5.20;99.90
52555;DHT22;38455;52.710;6.502;2024-02-23T05:01:25;5.30;99.90
52555;DHT22;38455;52.710;6.502;2024-02-23T05:03:50;5.30;99.90
52555;DHT22;38455;52.710;6.502;2024-02-23T05:06:16;5.30;99.90
52555;DHT22;38455;52.710;6.502;2024-02-23T05:08:41;5.30;99.90
52555;DHT22;38455;52.710;6.502;2024-02-23T05:11:07;5.30;99.90
52555;DHT22;38455;52.710;6.502;2024-02-23T05:13:33;5.30;99.90
52555;DHT22;38455;52.710;6.502;2024-02-23T05:15:58;5.30;99.90
52555;DHT22;38455;52.710;6.502;2024-02-23T05:18:24;5.30;99.90
52555;DHT22;38455;52.710;6.502;2024-02-23T05:20:50;5.30;99.90
52555;DHT22;38455;52.710;6.502;2024-02-23T05:23:15;5.30;99.90
52555;DHT22;38455;52.710;6.502;2024-02-23T05:25:42;5.30;99.90
52555;DHT22;38455;52.710;6.502;2024-02-23T05:28:08;5.30;99.90
52555;DHT22;38455;52.710;6.502;2024-02-23T05:30:33;5.30;99.90
52555;DHT22;38455;52.710;6.502;2024-02-23T05:32:59;5.20;99.90
52555;DHT22;38455;52.710;6.502;2024-02-23T05:35:27;5.20;99.90
52555;DHT22;38455;52.710;6.502;2024-02-23T05:37:53;5.10;99.90
52555;DHT22;38455;52.710;6.502;2024-02-23T05:40:19;5.10;99.90
52555;DHT22;38455;52.710;6.502;2024-02-23T05:42:45;5.10;99.90
52555;DHT22;38455;52.710;6.502;2024-02-23T05:45:11;5.10;99.90
52555;DHT22;38455;52.710;6.502;2024-02-23T05:47:39;5.10;99.90
52555;DHT22;38455;52.710;6.502;2024-02-23T05:50:07;5.20;99.90
52555;DHT22;38455;52.710;6.502;2024-02-23T05:52:33;5.10;99.90
52555;DHT22;38455;52.710;6.502;2024-02-23T05:54:59;5.10;99.90
52555;DHT22;38455;52.710;6.502;2024-02-23T05:57:26;5.10;99.90
52555;DHT22;38455;52.710;6.502;2024-02-23T05:59:52;5.10;99.90
52555;DHT22;38455;52.710;6.502;2024-02-23T06:02:18;5.00;99.90
52555;DHT22;38455;52.710;6.502;2024-02-23T06:04:44;5.00;99.90
52555;DHT22;38455;52.710;6.502;2024-02-23T06:07:10;5.00;99.90
52555;DHT22;38455;52.710;6.502;2024-02-23T06:09:36;4.90;99.90
52555;DHT22;38455;52.710;6.502;2024-02-23T06:12:02;4.90;99.90
52555;DHT22;38455;52.710;6.502;2024-02-23T06:14:28;4.90;99.90
52555;DHT22;38455;52.710;6.502;2024-02-23T06:16:54;4.80;99.90
52555;DHT22;38455;52.710;6.502;2024-02-23T06:19:19;4.90;99.90
52555;DHT22;38455;52.710;6.502;2024-02-23T06:21:48;4.90;99.90
52555;DHT22;38455;52.710;6.502;2024-02-23T06:24:15;4.90;99.90
52555;DHT22;38455;52.710;6.502;2024-02-23T06:26:40;4.90;99.90
52555;DHT22;38455;52.710;6.502;2024-02-23T06:29:06;4.90;99.90
52555;DHT22;38455;52.710;6.502;2024-02-23T06:31:34;5.00;99.90
52555;DHT22;38455;52.710;6.502;2024-02-23T06:34:00;5.00;99.90
52555;DHT22;38455;52.710;6.502;2024-02-23T06:36:25;5.10;99.90
52555;DHT22;38455;52.710;6.502;2024-02-23T06:38:51;5.10;99.90
52555;DHT22;38455;52.710;6.502;2024-02-23T06:41:17;5.10;99.90
52555;DHT22;38455;52.710;6.502;2024-02-23T06:43:43;5.10;99.90
52555;DHT22;38455;52.710;6.502;2024-02-23T06:46:09;5.10;99.90
52555;DHT22;38455;52.710;6.502;2024-02-23T06:48:36;5.20;99.90
52555;DHT22;38455;52.710;6.502;2024-02-23T06:51:05;5.20;99.90
52555;DHT22;38455;52.710;6.502;2024-02-23T06:53:34;5.30;99.90
52555;DHT22;38455;52.710;6.502;2024-02-23T06:56:00;5.30;99.90
52555;DHT22;38455;52.710;6.502;2024-02-23T06:58:26;5.40;99.90
52555;DHT22;38455;52.710;6.502;2024-02-23T07:00:52;5.40;99.90
52555;DHT22;38455;52.710;6.502;2024-02-23T07:03:18;5.40;99.90
52555;DHT22;38455;52.710;6.502;2024-02-23T07:05:43;5.50;99.90
52555;DHT22;38455;52.710;6.502;2024-02-23T07:08:10;5.50;99.90
52555;DHT22;38455;52.710;6.502;2024-02-23T07:10:36;5.50;99.90
52555;DHT22;38455;52.710;6.502;2024-02-23T07:13:02;5.50;99.90
52555;DHT22;38455;52.710;6.502;2024-02-23T07:15:27;5.50;99.90
52555;DHT22;38455;52.710;6.502;2024-02-23T07:17:53;5.50;99.90
52555;DHT22;38455;52.710;6.502;2024-02-23T07:20:19;5.60;99.90
52555;DHT22;38455;52.710;6.502;2024-02-23T07:22:45;5.60;99.90
52555;DHT22;38455;52.710;6.502;2024-02-23T07:25:15;5.60;99.90
52555;DHT22;38455;52.710;6.502;2024-02-23T07:27:41;5.60;99.90
52555;DHT22;38455;52.710;6.502;2024-02-23T07:30:07;5.60;99.90
52555;DHT22;38455;52.710;6.502;2024-02-23T07:32:33;5.70;99.90
52555;DHT22;38455;52.710;6.502;2024-02-23T07:34:59;5.70;99.90
52555;DHT22;38455;52.710;6.502;2024-02-23T07:37:26;5.70;99.90
52555;DHT22;38455;52.710;6.502;2024-02-23T07:39:52;5.70;99.90
52555;DHT22;38455;52.710;6.502;2024-02-23T07:42:18;5.70;99.90
52555;DHT22;38455;52.710;6.502;2024-02-23T07:44:44;5.70;99.90
52555;DHT22;38455;52.710;6.502;2024-02-23T07:47:11;5.80;99.90
52555;DHT22;38455;52.710;6.502;2024-02-23T07:49:37;5.70;99.90
52555;DHT22;38455;52.710;6.502;2024-02-23T07:52:03;5.70;99.90
52555;DHT22;38455;52.710;6.502;2024-02-23T07:54:29;5.80;99.90
52555;DHT22;38455;52.710;6.502;2024-02-23T07:56:55;5.80;99.90
52555;DHT22;38455;52.710;6.502;2024-02-23T07:59:22;5.80;99.90
52555;DHT22;38455;52.710;6.502;2024-02-23T08:01:48;5.80;99.90
52555;DHT22;38455;52.710;6.502;2024-02-23T08:04:14;5.80;99.90
52555;DHT22;38455;52.710;6.502;2024-02-23T08:06:40;5.80;99.90
52555;DHT22;38455;52.710;6.502;2024-02-23T08:09:05;5.80;99.90
52555;DHT22;38455;52.710;6.502;2024-02-23T08:11:32;6.00;99.90
52555;DHT22;38455;52.710;6.502;2024-02-23T08:13:58;6.00;99.90
52555;DHT22;38455;52.710;6.502;2024-02-23T08:16:24;6.10;99.90
52555;DHT22;38455;52.710;6.502;2024-02-23T08:18:49;6.20;99.90
52555;DHT22;38455;52.710;6.502;2024-02-23T08:21:15;6.40;99.90
52555;DHT22;38455;52.710;6.502;2024-02-23T08:23:41;6.40;99.90
52555;DHT22;38455;52.710;6.502;2024-02-23T08:26:06;6.40;99.90
52555;DHT22;38455;52.710;6.502;2024-02-23T08:28:32;6.40;99.90
52555;DHT22;38455;52.710;6.502;2024-02-23T08:30:58;7.10;99.90
52555;DHT22;38455;52.710;6.502;2024-02-23T08:33:23;8.10;99.90
52555;DHT22;38455;52.710;6.502;2024-02-23T08:35:49;8.30;99.90
52555;DHT22;38455;52.710;6.502;2024-02-23T08:38:14;8.60;99.90
52555;DHT22;38455;52.710;6.502;2024-02-23T08:40:40;8.50;99.90
52555;DHT22;38455;52.710;6.502;2024-02-23T08:43:07;8.10;99.90
52555;DHT22;38455;52.710;6.502;2024-02-23T08:45:33;8.00;99.90
52555;DHT22;38455;52.710;6.502;2024-02-23T08:47:58;8.00;99.90
52555;DHT22;38455;52.710;6.502;2024-02-23T08:50:24;7.90;99.90
52555;DHT22;38455;52.710;6.502;2024-02-23T08:52:50;7.60;99.90
52555;DHT22;38455;52.710;6.502;2024-02-23T08:55:15;7.50;99.90
52555;DHT22;38455;52.710;6.502;2024-02-23T08:57:41;7.40;99.90
52555;DHT22;38455;52.710;6.502;2024-02-23T09:00:07;7.60;99.90
52555;DHT22;38455;52.710;6.502;2024-02-23T09:02:33;8.10;99.90
52555;DHT22;38455;52.710;6.502;2024-02-23T09:05:01;8.80;99.90
52555;DHT22;38455;52.710;6.502;2024-02-23T09:07:27;9.50;99.90
52555;DHT22;38455;52.710;6.502;2024-02-23T09:09:52;9.80;99.90
52555;DHT22;38455;52.710;6.502;2024-02-23T09:12:19;9.70;99.90
52555;DHT22;38455;52.710;6.502;2024-02-23T09:14:44;9.40;99.90
52555;DHT22;38455;52.710;6.502;2024-02-23T09:17:10;8.80;99.90
52555;DHT22;38455;52.710;6.502;2024-02-23T09:19:37;8.40;99.90
52555;DHT22;38455;52.710;6.502;2024-02-23T09:22:03;8.20;99.90
52555;DHT22;38455;52.710;6.502;2024-02-23T09:24:28;7.90;99.90
52555;DHT22;38455;52.710;6.502;2024-02-23T09:26:54;7.80;99.90
52555;DHT22;38455;52.710;6.502;2024-02-23T09:29:20;7.80;99.90
52555;DHT22;38455;52.710;6.502;2024-02-23T09:31:47;7.90;99.90
52555;DHT22;38455;52.710;6.502;2024-02-23T09:34:13;8.40;99.90
52555;DHT22;38455;52.710;6.502;2024-02-23T09:36:39;8.80;99.90
52555;DHT22;38455;52.710;6.502;2024-02-23T09:39:04;8.80;99.90
52555;DHT22;38455;52.710;6.502;2024-02-23T09:41:30;8.80;99.90
52555;DHT22;38455;52.710;6.502;2024-02-23T09:44:00;8.60;99.90
52555;DHT22;38455;52.710;6.502;2024-02-23T09:46:26;8.40;99.90
52555;DHT22;38455;52.710;6.502;2024-02-23T09:48:53;8.30;99.90
52555;DHT22;38455;52.710;6.502;2024-02-23T09:51:21;8.20;99.90
52555;DHT22;38455;52.710;6.502;2024-02-23T09:53:49;8.90;99.90
52555;DHT22;38455;52.710;6.502;2024-02-23T09:56:16;9.20;99.90
52555;DHT22;38455;52.710;6.502;2024-02-23T09:58:44;9.20;99.90
52555;DHT22;38455;52.710;6.502;2024-02-23T10:01:10;9.10;99.90
52555;DHT22;38455;52.710;6.502;2024-02-23T10:03:37;8.70;99.90
52555;DHT22;38455;52.710;6.502;2024-02-23T10:06:04;8.40;99.90
52555;DHT22;38455;52.710;6.502;2024-02-23T10:08:30;8.50;99.90
52555;DHT22;38455;52.710;6.502;2024-02-23T10:10:56;8.40;99.90
52555;DHT22;38455;52.710;6.502;2024-02-23T10:13:23;8.30;99.90
52555;DHT22;38455;52.710;6.502;2024-02-23T10:15:52;8.10;99.90
52555;DHT22;38455;52.710;6.502;2024-02-23T10:18:19;8.00;99.90
52555;DHT22;38455;52.710;6.502;2024-02-23T10:20:45;7.90;99.90
52555;DHT22;38455;52.710;6.502;2024-02-23T10:23:11;7.80;99.90
52555;DHT22;38455;52.710;6.502;2024-02-23T10:25:37;7.80;99.90
52555;DHT22;38455;52.710;6.502;2024-02-23T10:28:05;7.80;99.90
52555;DHT22;38455;52.710;6.502;2024-02-23T10:30:31;7.80;99.90
52555;DHT22;38455;52.710;6.502;2024-02-23T10:32:57;7.70;99.90
52555;DHT22;38455;52.710;6.502;2024-02-23T10:35:24;7.70;99.90
52555;DHT22;38455;52.710;6.502;2024-02-23T10:37:51;7.70;99.90
52555;DHT22;38455;52.710;6.502;2024-02-23T10:40:21;7.70;99.90
52555;DHT22;38455;52.710;6.502;2024-02-23T10:42:51;7.70;99.90
52555;DHT22;38455;52.710;6.502;2024-02-23T10:45:21;7.70;99.90
52555;DHT22;38455;52.710;6.502;2024-02-23T10:47:50;7.70;99.90
52555;DHT22;38455;52.710;6.502;2024-02-23T10:50:17;7.70;99.90
52555;DHT22;38455;52.710;6.502;2024-02-23T10:52:45;7.70;99.90
52555;DHT22;38455;52.710;6.502;2024-02-23T10:55:13;7.70;99.90
52555;DHT22;38455;52.710;6.502;2024-02-23T10:57:39;7.60;99.90
52555;DHT22;38455;52.710;6.502;2024-02-23T11:00:07;7.60;99.90
52555;DHT22;38455;52.710;6.502;2024-02-23T11:02:39;7.60;99.90
52555;DHT22;38455;52.710;6.502;2024-02-23T11:05:06;7.60;99.90
52555;DHT22;38455;52.710;6.502;2024-02-23T11:07:38;7.60;99.90
52555;DHT22;38455;52.710;6.502;2024-02-23T11:10:05;7.60;99.90
52555;DHT22;38455;52.710;6.502;2024-02-23T11:12:31;7.60;99.90
52555;DHT22;38455;52.710;6.502;2024-02-23T11:14:57;7.60;99.90
52555;DHT22;38455;52.710;6.502;2024-02-23T11:17:27;7.50;99.90
52555;DHT22;38455;52.710;6.502;2024-02-23T11:19:55;7.40;99.90
52555;DHT22;38455;52.710;6.502;2024-02-23T11:22:31;7.30;99.90
52555;DHT22;38455;52.710;6.502;2024-02-23T11:25:02;7.10;99.90
52555;DHT22;38455;52.710;6.502;2024-02-23T11:27:33;7.20;99.90
52555;DHT22;38455;52.710;6.502;2024-02-23T11:30:01;7.30;99.90
52555;DHT22;38455;52.710;6.502;2024-02-23T11:32:37;7.40;99.90
52555;DHT22;38455;52.710;6.502;2024-02-23T11:35:07;7.50;99.90
52555;DHT22;38455;52.710;6.502;2024-02-23T11:37:45;7.50;99.90
52555;DHT22;38455;52.710;6.502;2024-02-23T11:40:12;7.50;99.90
52555;DHT22;38455;52.710;6.502;2024-02-23T11:42:40;7.40;99.90
52555;DHT22;38455;52.710;6.502;2024-02-23T11:45:06;7.40;99.90
52555;DHT22;38455;52.710;6.502;2024-02-23T11:47:32;7.40;99.90
52555;DHT22;38455;52.710;6.502;2024-02-23T11:49:58;7.40;99.90
52555;DHT22;38455;52.710;6.502;2024-02-23T11:52:23;7.40;99.90
52555;DHT22;38455;52.710;6.502;2024-02-23T11:54:49;7.50;99.90
52555;DHT22;38455;52.710;6.502;2024-02-23T11:57:15;7.40;99.90
52555;DHT22;38455;52.710;6.502;2024-02-23T11:59:41;7.40;99.90
52555;DHT22;38455;52.710;6.502;2024-02-23T12:02:06;7.40;99.90
52555;DHT22;38455;52.710;6.502;2024-02-23T12:04:33;7.30;99.90
52555;DHT22;38455;52.710;6.502;2024-02-23T12:06:59;7.40;99.90
52555;DHT22;38455;52.710;6.502;2024-02-23T12:09:26;7.30;99.90
52555;DHT22;38455;52.710;6.502;2024-02-23T12:11:52;7.30;99.90
52555;DHT22;38455;52.710;6.502;2024-02-23T12:14:17;7.30;99.90
52555;DHT22;38455;52.710;6.502;2024-02-23T12:16:43;7.30;99.90
52555;DHT22;38455;52.710;6.502;2024-02-23T12:19:10;7.30;99.90
52555;DHT22;38455;52.710;6.502;2024-02-23T12:21:36;7.30;99.90
52555;DHT22;38455;52.710;6.502;2024-02-23T12:24:04;7.30;99.90
52555;DHT22;38455;52.710;6.502;2024-02-23T12:26:32;7.30;99.90
52555;DHT22;38455;52.710;6.502;2024-02-23T12:29:01;7.40;99.90
52555;DHT22;38455;52.710;6.502;2024-02-23T12:31:28;7.40;99.90
52555;DHT22;38455;52.710;6.502;2024-02-23T12:33:54;7.40;99.90
52555;DHT22;38455;52.710;6.502;2024-02-23T12:36:23;7.50;99.90
52555;DHT22;38455;52.710;6.502;2024-02-23T12:38:49;7.50;99.90
52555;DHT22;38455;52.710;6.502;2024-02-23T12:41:14;7.50;99.90
52555;DHT22;38455;52.710;6.502;2024-02-23T12:43:40;7.50;99.90
52555;DHT22;38455;52.710;6.502;2024-02-23T12:46:06;7.50;99.90
52555;DHT22;38455;52.710;6.502;2024-02-23T12:48:34;7.50;99.90
52555;DHT22;38455;52.710;6.502;2024-02-23T12:51:00;7.50;99.90
52555;DHT22;38455;52.710;6.502;2024-02-23T12:56:05;7.50;99.90
52555;DHT22;38455;52.710;6.502;2024-02-23T12:58:31;7.50;99.90
52555;DHT22;38455;52.710;6.502;2024-02-23T13:00:57;7.50;99.90
52555;DHT22;38455;52.710;6.502;2024-02-23T13:03:26;7.50;99.90
52555;DHT22;38455;52.710;6.502;2024-02-23T13:05:53;7.50;99.90
52555;DHT22;38455;52.710;6.502;2024-02-23T13:08:19;7.60;99.90
52555;DHT22;38455;52.710;6.502;2024-02-23T13:10:44;7.60;99.90
52555;DHT22;38455;52.710;6.502;2024-02-23T13:13:10;7.60;99.90
52555;DHT22;38455;52.710;6.502;2024-02-23T13:15:36;7.60;99.90
52555;DHT22;38455;52.710;6.502;2024-02-23T13:18:04;7.60;99.90
52555;DHT22;38455;52.710;6.502;2024-02-23T13:20:30;7.60;99.90
52555;DHT22;38455;52.710;6.502;2024-02-23T13:22:55;7.60;99.90
52555;DHT22;38455;52.710;6.502;2024-02-23T13:25:21;7.60;99.90
52555;DHT22;38455;52.710;6.502;2024-02-23T13:27:47;7.60;99.90
52555;DHT22;38455;52.710;6.502;2024-02-23T13:30:13;7.50;99.90
52555;DHT22;38455;52.710;6.502;2024-02-23T13:32:39;7.50;99.90
52555;DHT22;38455;52.710;6.502;2024-02-23T13:35:06;7.50;99.90
52555;DHT22;38455;52.710;6.502;2024-02-23T13:37:32;7.50;99.90
52555;DHT22;38455;52.710;6.502;2024-02-23T13:39:58;7.50;99.90
52555;DHT22;38455;52.710;6.502;2024-02-23T13:42:23;7.50;99.90
52555;DHT22;38455;52.710;6.502;2024-02-23T13:44:49;7.50;99.90
52555;DHT22;38455;52.710;6.502;2024-02-23T13:47:15;7.50;99.90
52555;DHT22;38455;52.710;6.502;2024-02-23T13:49:40;7.60;99.90
52555;DHT22;38455;52.710;6.502;2024-02-23T13:52:06;7.60;99.90
52555;DHT22;38455;52.710;6.502;2024-02-23T13:54:32;7.60;99.90
52555;DHT22;38455;52.710;6.502;2024-02-23T13:56:57;7.70;99.90
52555;DHT22;38455;52.710;6.502;2024-02-23T13:59:23;7.70;99.90
52555;DHT22;38455;52.710;6.502;2024-02-23T14:01:49;7.70;99.90
52555;DHT22;38455;52.710;6.502;2024-02-23T14:04:14;7.70;99.90
52555;DHT22;38455;52.710;6.502;2024-02-23T14:06:40;7.80;99.90
52555;DHT22;38455;52.710;6.502;2024-02-23T14:09:05;7.80;99.90
52555;DHT22;38455;52.710;6.502;2024-02-23T14:11:31;7.80;99.90
52555;DHT22;38455;52.710;6.502;2024-02-23T14:13:57;7.80;99.90
52555;DHT22;38455;52.710;6.502;2024-02-23T14:16:23;7.80;99.90
52555;DHT22;38455;52.710;6.502;2024-02-23T14:18:49;7.80;99.90
52555;DHT22;38455;52.710;6.502;2024-02-23T14:21:15;7.80;99.90
52555;DHT22;38455;52.710;6.502;2024-02-23T14:23:42;7.80;99.90
52555;DHT22;38455;52.710;6.502;2024-02-23T14:26:09;7.90;99.90
52555;DHT22;38455;52.710;6.502;2024-02-23T14:28:35;7.90;99.90
52555;DHT22;38455;52.710;6.502;2024-02-23T14:31:01;8.00;99.90
52555;DHT22;38455;52.710;6.502;2024-02-23T14:33:26;8.00;99.90
52555;DHT22;38455;52.710;6.502;2024-02-23T14:35:52;8.00;99.90
52555;DHT22;38455;52.710;6.502;2024-02-23T14:38:18;7.90;99.90
52555;DHT22;38455;52.710;6.502;2024-02-23T14:40:43;7.90;99.90
52555;DHT22;38455;52.710;6.502;2024-02-23T14:43:09;7.90;99.90
52555;DHT22;38455;52.710;6.502;2024-02-23T14:45:35;7.90;99.90
52555;DHT22;38455;52.710;6.502;2024-02-23T14:48:01;7.80;99.90
52555;DHT22;38455;52.710;6.502;2024-02-23T14:50:27;7.80;99.90
52555;DHT22;38455;52.710;6.502;2024-02-23T14:52:53;7.80;99.90
52555;DHT22;38455;52.710;6.502;2024-02-23T14:55:19;7.80;99.90
52555;DHT22;38455;52.710;6.502;2024-02-23T14:57:47;7.80;99.90
52555;DHT22;38455;52.710;6.502;2024-02-23T15:00:13;7.80;99.90
52555;DHT22;38455;52.710;6.502;2024-02-23T15:02:39;7.80;99.90
52555;DHT22;38455;52.710;6.502;2024-02-23T15:05:07;7.70;99.90
52555;DHT22;38455;52.710;6.502;2024-02-23T15:07:34;7.70;99.90
52555;DHT22;38455;52.710;6.502;2024-02-23T15:10:00;7.70;99.90
52555;DHT22;38455;52.710;6.502;2024-02-23T15:12:31;7.80;99.90
52555;DHT22;38455;52.710;6.502;2024-02-23T15:14:57;7.80;99.90
52555;DHT22;38455;52.710;6.502;2024-02-23T15:17:22;7.80;99.90
52555;DHT22;38455;52.710;6.502;2024-02-23T15:19:48;7.80;99.90
52555;DHT22;38455;52.710;6.502;2024-02-23T15:22:14;7.90;99.90
52555;DHT22;38455;52.710;6.502;2024-02-23T15:24:41;7.90;99.90
52555;DHT22;38455;52.710;6.502;2024-02-23T15:27:08;7.90;99.90
52555;DHT22;38455;52.710;6.502;2024-02-23T15:29:34;7.90;99.90
52555;DHT22;38455;52.710;6.502;2024-02-23T15:32:00;7.80;99.90
52555;DHT22;38455;52.710;6.502;2024-02-23T15:34:26;7.80;99.90
52555;DHT22;38455;52.710;6.502;2024-02-23T15:36:52;7.80;99.90
52555;DHT22;38455;52.710;6.502;2024-02-23T15:39:18;7.80;99.90
52555;DHT22;38455;52.710;6.502;2024-02-23T15:41:43;7.80;99.90